createdAt,value
2022-08-08T00:00:54.007Z,16.95
2022-08-08T00:03:20.088Z,16.27
2022-08-08T00:06:28.301Z,17.20
2022-08-08T00:09:16.048Z,24.33
2022-08-08T00:12:08.058Z,26.75
2022-08-08T00:15:00.706Z,18.88
2022-08-08T00:18:03.494Z,23.92
2022-08-08T00:20:54.624Z,18.25
2022-08-08T00:23:43.226Z,17.92
2022-08-08T00:26:29.204Z,18.73
2022-08-08T00:29:04.036Z,17.83
2022-08-08T00:32:29.068Z,16.55
2022-08-08T00:35:06.462Z,16.15
2022-08-08T00:38:01.552Z,18.20
2022-08-08T00:41:10.631Z,15.52
2022-08-08T00:44:02.935Z,17.92
2022-08-08T00:46:58.343Z,17.23
2022-08-08T00:49:58.359Z,15.98
2022-08-08T00:52:48.917Z,29.23
2022-08-08T00:55:54.051Z,27.15
2022-08-08T00:58:35.155Z,23.88
2022-08-08T01:01:37.732Z,17.55
2022-08-08T01:04:42.204Z,19.05
2022-08-08T01:07:55.310Z,18.20
2022-08-08T01:10:49.831Z,16.88
2022-08-08T01:13:52.761Z,15.88
2022-08-08T01:16:48.015Z,16.35
2022-08-08T01:20:01.957Z,16.00
2022-08-08T01:22:55.622Z,16.08
2022-08-08T01:25:48.446Z,16.63
2022-08-08T01:28:48.867Z,16.73
2022-08-08T01:32:06.335Z,15.30
2022-08-08T01:34:52.655Z,12.82
2022-08-08T01:37:57.848Z,13.70
2022-08-08T01:41:06.418Z,14.48
2022-08-08T01:44:02.180Z,14.13
2022-08-08T01:46:56.777Z,13.73
2022-08-08T01:49:56.618Z,12.05
2022-08-08T01:54:07.619Z,11.95
2022-08-08T01:56:28.877Z,14.80
2022-08-08T01:59:03.021Z,12.52
2022-08-08T02:02:05.234Z,13.85
2022-08-08T02:04:44.312Z,14.45
2022-08-08T02:07:41.968Z,13.43
2022-08-08T02:10:45.119Z,21.52
2022-08-08T02:13:54.334Z,11.77
2022-08-08T02:16:22.603Z,12.68
2022-08-08T02:19:27.036Z,8.23
2022-08-08T02:22:33.658Z,8.90
2022-08-08T02:25:28.191Z,8.85
2022-08-08T02:28:06.330Z,15.23
2022-08-08T02:31:01.930Z,10.35
2022-08-08T02:34:07.866Z,11.15
2022-08-08T02:37:00.558Z,6.80
2022-08-08T02:39:58.342Z,8.75
2022-08-08T02:44:11.559Z,6.43
2022-08-08T02:46:08.515Z,8.48
2022-08-08T02:48:50.447Z,23.00
2022-08-08T02:51:55.541Z,9.07
2022-08-08T02:54:50.134Z,7.20
2022-08-08T02:57:45.674Z,8.35
2022-08-08T03:00:43.134Z,8.73
2022-08-08T03:05:00.723Z,6.07
2022-08-08T03:06:46.426Z,8.77
2022-08-08T03:09:37.362Z,5.18
2022-08-08T03:12:36.375Z,5.40
2022-08-08T03:16:01.433Z,6.45
2022-08-08T03:18:41.180Z,5.63
2022-08-08T03:21:14.548Z,9.93
2022-08-08T03:23:57.540Z,6.10
2022-08-08T03:26:42.705Z,5.47
2022-08-08T03:29:26.769Z,6.38
2022-08-08T03:32:31.900Z,6.00
2022-08-08T03:35:04.820Z,9.07
2022-08-08T03:38:54.646Z,9.95
2022-08-08T03:40:31.970Z,6.78
2022-08-08T03:43:16.784Z,7.97
2022-08-08T03:46:05.232Z,5.03
2022-08-08T03:49:30.954Z,5.40
2022-08-08T03:51:50.411Z,7.35
2022-08-08T03:54:51.516Z,5.78
2022-08-08T03:58:29.983Z,5.22
2022-08-08T04:00:12.285Z,7.18
2022-08-08T04:02:57.764Z,5.70
2022-08-08T04:05:33.317Z,4.47
2022-08-08T04:08:33.499Z,7.70
2022-08-08T04:11:17.701Z,6.43
2022-08-08T04:14:04.491Z,5.30
2022-08-08T04:16:54.509Z,3.80
2022-08-08T04:19:36.960Z,4.85
2022-08-08T04:22:10.566Z,5.13
2022-08-08T04:24:50.019Z,3.00
2022-08-08T04:28:02.507Z,4.95
2022-08-08T04:30:25.877Z,16.83
2022-08-08T04:33:03.222Z,16.25
2022-08-08T04:35:41.063Z,2.75
2022-08-08T04:38:28.676Z,4.45
2022-08-08T04:41:08.576Z,2.95
2022-08-08T04:43:47.790Z,2.50
2022-08-08T04:46:31.090Z,3.40
2022-08-08T04:49:02.616Z,3.58
2022-08-08T04:51:55.296Z,2.92
2022-08-08T04:54:27.739Z,2.45
2022-08-08T04:57:11.141Z,2.28
2022-08-08T04:59:43.039Z,3.90
2022-08-08T05:02:14.505Z,3.15
2022-08-08T05:04:45.356Z,2.45
2022-08-08T05:07:20.921Z,2.75
2022-08-08T05:09:54.600Z,27.95
2022-08-08T05:12:28.949Z,3.00
2022-08-08T05:15:04.546Z,3.00
2022-08-08T05:17:53.995Z,13.00
2022-08-08T05:20:29.423Z,7.63
2022-08-08T05:23:05.646Z,6.13
2022-08-08T05:25:41.428Z,3.70
2022-08-08T05:28:16.471Z,3.53
2022-08-08T05:31:19.410Z,4.93
2022-08-08T05:34:20.803Z,3.40
2022-08-08T05:37:02.102Z,3.38
2022-08-08T05:39:41.789Z,2.25
2022-08-08T05:42:29.392Z,2.50
2022-08-08T05:45:10.365Z,2.53
2022-08-08T05:48:08.181Z,2.42
2022-08-08T05:50:47.992Z,2.75
2022-08-08T05:54:24.545Z,2.45
2022-08-08T05:56:27.335Z,2.25
2022-08-08T05:59:12.427Z,2.20
2022-08-08T06:01:57.855Z,2.25
2022-08-08T06:04:35.150Z,1.90
2022-08-08T06:07:16.444Z,2.08
2022-08-08T06:10:01.012Z,1.80
2022-08-08T06:12:41.587Z,1.92
2022-08-08T06:15:19.204Z,2.13
2022-08-08T06:18:20.266Z,2.67
2022-08-08T06:21:11.788Z,3.03
2022-08-08T06:24:04.625Z,3.33
2022-08-08T06:26:53.683Z,3.13
2022-08-08T06:29:59.146Z,3.78
2022-08-08T06:32:47.686Z,2.58
2022-08-08T06:36:06.640Z,4.80
2022-08-08T06:38:28.727Z,7.88
2022-08-08T06:41:13.074Z,7.47
2022-08-08T06:43:57.217Z,7.38
2022-08-08T06:46:37.901Z,9.13
2022-08-08T06:49:17.818Z,10.40
2022-08-08T06:51:57.905Z,10.50
2022-08-08T06:54:32.673Z,12.23
2022-08-08T06:57:15.114Z,9.65
2022-08-08T07:00:09.915Z,8.82
2022-08-08T07:02:51.110Z,8.20
2022-08-08T07:05:40.144Z,6.95
2022-08-08T07:08:33.481Z,6.30
2022-08-08T07:11:21.925Z,7.10
2022-08-08T07:14:02.427Z,8.23
2022-08-08T07:16:56.016Z,7.90
2022-08-08T07:19:53.118Z,8.85
2022-08-08T07:22:43.239Z,6.80
2022-08-08T07:25:22.726Z,7.95
2022-08-08T07:28:31.643Z,5.32
2022-08-08T07:31:10.230Z,4.20
2022-08-08T07:33:58.863Z,5.10
2022-08-08T07:36:37.231Z,4.82
2022-08-08T07:39:17.267Z,5.30
2022-08-08T07:42:03.755Z,5.90
2022-08-08T07:44:43.761Z,5.32
2022-08-08T07:47:38.377Z,6.20
2022-08-08T07:50:24.794Z,5.20
2022-08-08T07:53:02.764Z,5.40
2022-08-08T07:55:38.118Z,5.07
2022-08-08T07:58:31.631Z,5.18
2022-08-08T08:01:12.296Z,6.72
2022-08-08T08:04:13.740Z,5.28
2022-08-08T08:06:53.522Z,4.32
2022-08-08T08:09:33.161Z,5.03
2022-08-08T08:12:07.182Z,4.03
2022-08-08T08:14:52.663Z,3.83
2022-08-08T08:17:25.815Z,3.72
2022-08-08T08:20:10.269Z,3.20
2022-08-08T08:22:41.071Z,2.67
2022-08-08T08:25:13.041Z,3.40
2022-08-08T08:27:47.869Z,2.90
2022-08-08T08:30:20.604Z,2.78
2022-08-08T08:32:56.938Z,3.38
2022-08-08T08:36:20.066Z,2.53
2022-08-08T08:38:22.685Z,2.70
2022-08-08T08:41:06.270Z,2.70
2022-08-08T08:43:50.739Z,2.67
2022-08-08T08:46:27.510Z,2.75
2022-08-08T08:49:00.683Z,2.83
2022-08-08T08:51:34.534Z,2.55
2022-08-08T08:54:10.296Z,3.13
2022-08-08T08:56:46.302Z,3.15
2022-08-08T08:59:30.550Z,2.38
2022-08-08T09:02:22.124Z,2.30
2022-08-08T09:05:07.722Z,2.58
2022-08-08T09:07:51.976Z,2.88
2022-08-08T09:10:48.086Z,2.70
2022-08-08T09:13:28.085Z,3.20
2022-08-08T09:16:04.182Z,3.20
2022-08-08T09:18:48.359Z,2.55
2022-08-08T09:22:01.480Z,3.10
2022-08-08T09:24:22.666Z,2.72
2022-08-08T09:27:20.879Z,9.60
2022-08-08T09:30:14.665Z,5.32
2022-08-08T09:33:12.553Z,10.40
2022-08-08T09:35:52.985Z,9.13
2022-08-08T09:38:54.075Z,2.30
2022-08-08T09:42:14.305Z,2.50
2022-08-08T09:44:56.252Z,3.25
2022-08-08T09:48:10.028Z,3.53
2022-08-08T09:50:36.698Z,3.60
2022-08-08T09:53:53.193Z,4.50
2022-08-08T09:56:24.946Z,3.58
2022-08-08T09:59:25.975Z,3.65
2022-08-08T10:02:12.906Z,3.88
2022-08-08T10:04:53.645Z,4.10
2022-08-08T10:07:36.019Z,5.82
2022-08-08T10:10:20.407Z,4.72
2022-08-08T10:13:14.674Z,4.60
2022-08-08T10:16:00.203Z,3.08
2022-08-08T10:18:42.323Z,3.22
2022-08-08T10:21:24.739Z,3.53
2022-08-08T10:24:28.628Z,3.60
2022-08-08T10:27:04.542Z,4.38
2022-08-08T10:30:00.313Z,4.38
2022-08-08T10:32:37.428Z,4.45
2022-08-08T10:36:07.727Z,4.65
2022-08-08T10:38:26.621Z,4.97
2022-08-08T10:41:05.302Z,4.97
2022-08-08T10:43:43.108Z,5.70
2022-08-08T10:46:30.118Z,4.80
2022-08-08T10:49:01.958Z,5.18
2022-08-08T10:51:47.372Z,5.25
2022-08-08T10:54:27.020Z,5.45
2022-08-08T10:57:01.403Z,5.47
2022-08-08T10:59:39.335Z,5.63
2022-08-08T11:02:15.385Z,6.45
2022-08-08T11:04:53.076Z,5.40
2022-08-08T11:08:31.459Z,7.28
2022-08-08T11:10:29.255Z,6.80
2022-08-08T11:13:28.566Z,7.80
2022-08-08T11:16:01.470Z,7.00
2022-08-08T11:18:41.329Z,14.70
2022-08-08T11:21:20.298Z,13.93
2022-08-08T11:24:01.967Z,10.02
2022-08-08T11:26:38.434Z,8.80
2022-08-08T11:29:50.867Z,8.68
2022-08-08T11:32:29.474Z,8.95
2022-08-08T11:35:29.501Z,8.15
2022-08-08T11:38:35.798Z,7.80
2022-08-08T11:41:03.893Z,7.50
2022-08-08T11:43:42.131Z,6.80
2022-08-08T11:46:18.865Z,7.38
2022-08-08T11:48:57.632Z,7.30
2022-08-08T11:51:40.377Z,6.70
2022-08-08T11:54:46.425Z,7.95
2022-08-08T11:57:35.133Z,6.82
2022-08-08T12:00:12.299Z,5.70
2022-08-08T12:02:59.358Z,6.32
2022-08-08T12:05:40.512Z,6.80
2022-08-08T12:08:15.835Z,8.18
2022-08-08T12:10:56.637Z,8.27
2022-08-08T12:13:37.819Z,6.07
2022-08-08T12:16:34.298Z,7.75
2022-08-08T12:19:21.978Z,6.82
2022-08-08T12:22:20.841Z,9.23
2022-08-08T12:24:57.721Z,8.27
2022-08-08T12:27:53.106Z,8.73
2022-08-08T12:30:35.893Z,7.60
2022-08-08T12:33:10.096Z,7.13
2022-08-08T12:35:53.385Z,7.15
2022-08-08T12:38:30.417Z,7.97
2022-08-08T12:41:35.334Z,6.30
2022-08-08T12:44:32.449Z,8.38
2022-08-08T12:47:13.023Z,7.32
2022-08-08T12:49:51.050Z,7.18
2022-08-08T12:52:29.691Z,6.38
2022-08-08T12:55:35.430Z,6.70
2022-08-08T12:58:19.767Z,7.22
2022-08-08T13:00:54.421Z,7.03
2022-08-08T13:03:35.538Z,6.90
2022-08-08T13:06:15.262Z,6.78
2022-08-08T13:09:01.194Z,7.38
2022-08-08T13:12:04.011Z,6.50
2022-08-08T13:14:53.116Z,8.43
2022-08-08T13:18:09.885Z,5.80
2022-08-08T13:20:30.115Z,7.70
2022-08-08T13:23:30.815Z,8.18
2022-08-08T13:26:19.585Z,8.02
2022-08-08T13:28:54.624Z,8.48
2022-08-08T13:31:33.273Z,7.20
2022-08-08T13:34:14.482Z,7.60
2022-08-08T13:36:56.797Z,7.65
2022-08-08T13:39:34.957Z,7.93
2022-08-08T13:42:13.612Z,7.85
2022-08-08T13:44:48.663Z,8.93
2022-08-08T13:47:23.513Z,12.57
2022-08-08T13:50:34.979Z,19.70
2022-08-08T13:53:24.863Z,17.77
2022-08-08T13:56:11.781Z,10.23
2022-08-08T13:58:58.059Z,11.95
2022-08-08T14:01:52.737Z,10.77
2022-08-08T14:04:25.091Z,10.98
2022-08-08T14:07:00.281Z,9.70
2022-08-08T14:10:04.755Z,10.90
2022-08-08T14:12:28.952Z,11.55
2022-08-08T14:14:59.352Z,9.75
2022-08-08T14:17:58.355Z,11.70
2022-08-08T14:20:56.831Z,12.43
2022-08-08T14:23:20.815Z,14.02
2022-08-08T14:26:10.801Z,12.30
2022-08-08T14:28:42.097Z,11.77
2022-08-08T14:31:20.516Z,13.00
2022-08-08T14:34:04.121Z,12.50
2022-08-08T14:36:37.153Z,12.57
2022-08-08T14:39:11.575Z,11.77
2022-08-08T14:41:54.132Z,13.50
2022-08-08T14:44:35.354Z,15.60
2022-08-08T14:47:21.271Z,30.88
2022-08-08T14:50:10.694Z,13.48
2022-08-08T14:52:44.144Z,12.10
2022-08-08T14:55:22.627Z,12.43
2022-08-08T14:58:11.989Z,11.98
2022-08-08T15:00:48.214Z,10.65
2022-08-08T15:03:19.158Z,10.95
2022-08-08T15:05:54.095Z,10.43
2022-08-08T15:08:34.295Z,12.68
2022-08-08T15:11:07.471Z,9.70
2022-08-08T15:14:00.784Z,9.23
2022-08-08T15:16:34.231Z,6.97
2022-08-08T15:19:05.421Z,7.53
2022-08-08T15:21:42.524Z,9.38
2022-08-08T15:24:16.120Z,7.60
2022-08-08T15:26:52.677Z,6.45
2022-08-08T15:29:25.490Z,6.35
2022-08-08T15:32:19.334Z,6.95
2022-08-08T15:34:47.150Z,7.63
2022-08-08T15:37:19.148Z,7.95
2022-08-08T15:39:49.904Z,9.50
2022-08-08T15:42:32.397Z,9.00
2022-08-08T15:45:04.316Z,7.25
2022-08-08T15:47:35.233Z,7.80
2022-08-08T15:50:09.617Z,8.13
2022-08-08T15:52:50.353Z,7.45
2022-08-08T15:55:20.973Z,8.52
2022-08-08T15:57:52.956Z,9.27
2022-08-08T16:00:27.864Z,9.25
2022-08-08T16:02:59.487Z,9.30
2022-08-08T16:05:35.941Z,10.10
2022-08-08T16:08:20.897Z,10.05
2022-08-08T16:13:15.126Z,34.00
2022-08-08T16:13:45.450Z,67.20
2022-08-08T16:16:18.072Z,12.65
2022-08-08T16:18:56.910Z,10.45
2022-08-08T16:21:33.218Z,11.55
2022-08-08T16:24:04.470Z,10.95
2022-08-08T16:26:36.170Z,12.05
2022-08-08T16:29:08.780Z,10.90
2022-08-08T16:31:48.504Z,10.68
2022-08-08T16:34:24.838Z,12.05
2022-08-08T16:36:55.467Z,12.95
2022-08-08T16:39:49.102Z,11.27
2022-08-08T16:42:18.814Z,11.52
2022-08-08T16:44:54.927Z,11.43
2022-08-08T16:47:40.410Z,11.48
2022-08-08T16:50:15.492Z,12.45
2022-08-08T16:54:59.971Z,20.20
2022-08-08T16:55:54.938Z,42.35
2022-08-08T16:58:31.706Z,22.10
2022-08-08T17:01:09.259Z,12.00
2022-08-08T17:03:59.309Z,12.13
2022-08-08T17:06:36.232Z,10.63
2022-08-08T17:09:15.242Z,10.20
2022-08-08T17:11:48.764Z,10.48
2022-08-08T17:14:33.829Z,10.20
2022-08-08T17:17:05.541Z,11.68
2022-08-08T17:19:53.574Z,69.90
2022-08-08T17:22:33.173Z,22.98
2022-08-08T17:25:13.004Z,11.50
2022-08-08T17:27:47.413Z,12.60
2022-08-08T17:30:27.593Z,11.68
2022-08-08T17:34:36.727Z,11.10
2022-08-08T17:35:53.859Z,11.15
2022-08-08T17:38:30.809Z,12.23
2022-08-08T17:41:01.255Z,11.60
2022-08-08T17:44:00.016Z,10.75
2022-08-08T17:46:42.615Z,11.20
2022-08-08T17:49:16.327Z,11.82
2022-08-08T17:51:52.971Z,10.55
2022-08-08T17:54:26.008Z,10.05
2022-08-08T17:57:00.258Z,10.07
2022-08-08T17:59:36.501Z,10.30
2022-08-08T18:02:21.290Z,11.32
2022-08-08T18:05:04.659Z,10.77
2022-08-08T18:08:01.176Z,10.80
2022-08-08T18:10:31.274Z,9.93
2022-08-08T18:13:07.472Z,10.20
2022-08-08T18:15:40.389Z,10.65
2022-08-08T18:18:28.713Z,10.15
2022-08-08T18:21:10.443Z,11.27
2022-08-08T18:23:52.869Z,10.63
2022-08-08T18:26:28.249Z,11.43
2022-08-08T18:28:59.868Z,11.63
2022-08-08T18:31:32.121Z,11.35
2022-08-08T18:34:25.949Z,10.90
2022-08-08T18:36:57.075Z,11.02
2022-08-08T18:39:28.254Z,12.20
2022-08-08T18:42:03.566Z,11.05
2022-08-08T18:44:36.076Z,10.95
2022-08-08T18:47:06.931Z,11.32
2022-08-08T18:49:57.631Z,11.02
2022-08-08T18:52:28.265Z,10.95
2022-08-08T18:55:10.729Z,10.93
2022-08-08T18:57:45.729Z,10.73
2022-08-08T19:00:20.495Z,11.00
2022-08-08T19:02:56.880Z,11.65
2022-08-08T19:05:30.179Z,11.40
2022-08-08T19:08:04.268Z,11.73
2022-08-08T19:10:35.611Z,12.32
2022-08-08T19:13:10.775Z,12.10
2022-08-08T19:15:51.851Z,12.30
2022-08-08T19:18:32.283Z,12.00
2022-08-08T19:21:28.844Z,13.18
2022-08-08T19:24:05.789Z,11.57
2022-08-08T19:26:37.459Z,12.77
2022-08-08T19:29:09.152Z,12.40
2022-08-08T19:31:40.846Z,11.75
2022-08-08T19:34:36.168Z,11.75
2022-08-08T19:37:08.643Z,12.35
2022-08-08T19:39:50.799Z,12.07
2022-08-08T19:42:21.505Z,11.77
2022-08-08T19:44:52.498Z,11.52
2022-08-08T19:47:24.978Z,12.13
2022-08-08T19:50:03.925Z,11.75
2022-08-08T19:52:37.420Z,11.82
2022-08-08T19:55:11.299Z,12.10
2022-08-08T19:57:43.416Z,12.55
2022-08-08T20:00:29.312Z,13.57
2022-08-08T20:03:14.730Z,12.82
2022-08-08T20:06:14.664Z,13.38
2022-08-08T20:08:48.170Z,13.00
2022-08-08T20:11:22.106Z,13.05
2022-08-08T20:14:32.284Z,12.80
2022-08-08T20:16:43.016Z,12.63
2022-08-08T20:19:16.259Z,12.27
2022-08-08T20:21:46.693Z,13.45
2022-08-08T20:24:21.419Z,13.95
2022-08-08T20:26:52.355Z,13.90
2022-08-08T20:29:23.116Z,13.68
2022-08-08T20:32:09.978Z,13.75
2022-08-08T20:34:47.517Z,13.68
2022-08-08T20:37:18.566Z,14.38
2022-08-08T20:39:51.604Z,14.40
2022-08-08T20:42:28.502Z,14.60
2022-08-08T20:45:00.703Z,13.52
2022-08-08T20:47:36.539Z,12.80
2022-08-08T20:50:10.745Z,14.00
2022-08-08T20:52:44.767Z,14.48
2022-08-08T20:55:25.911Z,14.25
2022-08-08T20:57:57.980Z,13.70
2022-08-08T21:00:28.792Z,14.10
2022-08-08T21:03:00.559Z,13.80
2022-08-08T21:05:32.438Z,13.20
2022-08-08T21:08:36.462Z,13.20
2022-08-08T21:11:10.335Z,12.35
2022-08-08T21:13:41.356Z,13.32
2022-08-08T21:16:18.185Z,13.00
2022-08-08T21:18:51.105Z,14.48
2022-08-08T21:21:39.712Z,14.52
2022-08-08T21:24:22.367Z,14.68
2022-08-08T21:26:59.346Z,14.38
2022-08-08T21:30:05.523Z,14.65
2022-08-08T21:32:25.699Z,14.65
2022-08-08T21:36:14.077Z,15.05
2022-08-08T21:37:54.146Z,14.07
2022-08-08T21:40:30.826Z,13.90
2022-08-08T21:43:02.026Z,14.38
2022-08-08T21:47:59.747Z,14.50
2022-08-08T21:48:28.991Z,15.30
2022-08-08T21:51:10.364Z,14.02
2022-08-08T21:54:33.124Z,13.85
2022-08-08T21:56:40.122Z,13.57
2022-08-08T21:59:15.272Z,14.20
2022-08-08T22:01:51.981Z,13.55
2022-08-08T22:04:26.175Z,12.95
2022-08-08T22:07:02.535Z,12.73
2022-08-08T22:09:37.625Z,13.50
2022-08-08T22:12:16.967Z,13.75
2022-08-08T22:14:50.238Z,13.82
2022-08-08T22:17:22.918Z,13.98
2022-08-08T22:20:12.924Z,13.40
2022-08-08T22:22:43.376Z,14.35
2022-08-08T22:25:25.611Z,13.75
2022-08-08T22:28:03.512Z,13.10
2022-08-08T22:30:50.921Z,14.13
2022-08-08T22:34:12.527Z,14.80
2022-08-08T22:36:13.690Z,34.08
2022-08-08T22:38:48.312Z,33.22
2022-08-08T22:41:21.770Z,13.20
2022-08-08T22:44:02.079Z,12.52
2022-08-08T22:46:34.410Z,13.73
2022-08-08T22:49:10.236Z,13.23
2022-08-08T22:51:42.860Z,13.35
2022-08-08T22:54:32.963Z,14.45
2022-08-08T22:57:11.576Z,15.25
2022-08-08T22:59:58.847Z,15.27
2022-08-08T23:02:30.459Z,14.82
2022-08-08T23:05:04.906Z,14.52
2022-08-08T23:07:51.785Z,13.27
2022-08-08T23:10:28.074Z,14.80
2022-08-08T23:12:58.475Z,14.35
2022-08-08T23:16:38.579Z,14.18
2022-08-08T23:18:19.603Z,14.80
2022-08-08T23:20:54.455Z,14.52
2022-08-08T23:23:25.484Z,12.77
2022-08-08T23:25:56.208Z,13.52
2022-08-08T23:28:26.522Z,14.65
2022-08-08T23:30:56.762Z,13.15
2022-08-08T23:34:15.489Z,14.68
2022-08-08T23:36:26.040Z,13.55
2022-08-08T23:38:56.546Z,14.95
2022-08-08T23:41:29.128Z,14.57
2022-08-08T23:43:59.466Z,13.98
2022-08-08T23:49:03.738Z,13.32
2022-08-08T23:49:24.354Z,12.13
2022-08-08T23:52:06.425Z,19.38
2022-08-08T23:55:00.384Z,13.40
2022-08-08T23:57:51.898Z,12.38
